KAMA/AMA METAR and TAF weather

Enter ICAO airport designator
Station Type Date Time Source
KAMA METAR 2018/12/12 22:53 UTC NOAA

KAMA 122253Z 23015G23KT 10SM CLR 19/M06 A2963 RMK AO2 SLP018 T01891061


Station Type Date Time Source
KAMA Decoded METAR 2018/12/12 22:53 UTC NOAA

AMARILLO INTERNATIONAL AIRPORT, TX, United States (KAMA) 35-13N 101-43W 1093M
Dec 12, 2018 - 05:53 PM EST / 2018.12.12 2253 UTC
Wind: from the SW (230 degrees) at 17 MPH (15 KT) gusting to 26 MPH (23 KT):0
Visibility: 10 mile(s):0
Sky conditions: clear
Temperature: 66.0 F (18.9 C)
Dew Point: 21.0 F (-6.1 C)
Relative Humidity: 17%
Pressure (altimeter): 29.63 in. Hg (1003 hPa)
ob: KAMA 122253Z 23015G23KT 10SM CLR 19/M06 A2963 RMK AO2 SLP018 T01891061
cycle: 23

Station Type Date Time Source
KAMA TAF 2018/12/12 18:36 UTC NOAA

TAF KAMA 121733Z 1218/1318 21013KT P6SM FEW250
FM130400 24015KT P6SM FEW250
FM130600 29018KT P6SM FEW250
FM130800 34027G38KT P6SM BKN190
FM130900 36035G53KT P6SM BKN040


Example: see airport list